createdAt,value
2023-01-22T00:00:09.221Z,40.35
2023-01-22T00:02:41.944Z,38.83
2023-01-22T00:05:09.859Z,46.80
2023-01-22T00:07:36.523Z,43.40
2023-01-22T00:10:03.472Z,40.72
2023-01-22T00:12:30.126Z,44.17
2023-01-22T00:14:56.833Z,43.75
2023-01-22T00:17:23.692Z,49.08
2023-01-22T00:19:50.630Z,43.40
2023-01-22T00:22:17.382Z,41.20
2023-01-22T00:24:44.277Z,45.95
2023-01-22T00:27:11.094Z,46.20
2023-01-22T00:29:37.931Z,43.80
2023-01-22T00:32:05.204Z,44.78
2023-01-22T00:34:32.090Z,48.20
2023-01-22T00:36:58.951Z,52.30
2023-01-22T00:39:25.679Z,53.70
2023-01-22T00:41:52.570Z,54.33
2023-01-22T00:44:19.416Z,44.15
2023-01-22T00:46:46.715Z,48.65
2023-01-22T00:49:13.729Z,37.70
2023-01-22T00:51:40.609Z,41.50
2023-01-22T00:54:08.873Z,43.63
2023-01-22T00:56:35.692Z,36.92
2023-01-22T00:59:10.142Z,41.63
2023-01-22T01:01:38.758Z,37.55
2023-01-22T01:04:05.832Z,38.60
2023-01-22T01:06:33.231Z,40.33
2023-01-22T01:09:00.196Z,36.70
2023-01-22T01:11:27.712Z,35.72
2023-01-22T01:13:55.763Z,35.50
2023-01-22T01:16:26.726Z,40.13
2023-01-22T01:18:53.832Z,36.00
2023-01-22T01:21:20.546Z,40.90
2023-01-22T01:23:48.551Z,36.65
2023-01-22T01:26:16.387Z,39.80
2023-01-22T01:28:45.476Z,36.95
2023-01-22T01:31:14.713Z,40.83
2023-01-22T01:33:41.972Z,35.47
2023-01-22T01:36:15.220Z,39.20
2023-01-22T01:38:42.322Z,39.70
2023-01-22T01:41:12.713Z,45.05
2023-01-22T01:43:39.624Z,46.08
2023-01-22T01:46:14.688Z,44.75
2023-01-22T01:48:44.285Z,41.53
2023-01-22T01:51:15.787Z,43.58
2023-01-22T01:53:45.037Z,43.88
2023-01-22T01:56:19.053Z,38.35
2023-01-22T01:58:47.152Z,40.30
2023-01-22T02:01:16.776Z,38.42
2023-01-22T02:03:44.560Z,42.35
2023-01-22T02:06:12.784Z,43.70
2023-01-22T02:08:41.150Z,40.40
2023-01-22T02:11:08.517Z,41.03
2023-01-22T02:13:36.583Z,37.05
2023-01-22T02:16:04.172Z,40.13
2023-01-22T02:18:31.093Z,35.28
2023-01-22T02:21:00.267Z,40.55
2023-01-22T02:23:28.672Z,42.42
2023-01-22T02:25:56.009Z,35.97
2023-01-22T02:28:23.107Z,35.90
2023-01-22T02:30:51.165Z,45.80
2023-01-22T02:33:18.340Z,37.30
2023-01-22T02:35:45.143Z,39.88
2023-01-22T02:38:11.944Z,46.20
2023-01-22T02:40:49.213Z,41.47
2023-01-22T02:43:19.341Z,39.00
2023-01-22T02:45:46.338Z,43.25
2023-01-22T02:48:13.422Z,37.78
2023-01-22T02:50:40.181Z,40.63
2023-01-22T02:53:07.626Z,39.50
2023-01-22T02:55:34.498Z,43.38
2023-01-22T02:58:01.330Z,44.33
2023-01-22T03:00:28.166Z,38.83
2023-01-22T03:02:55.404Z,42.40
2023-01-22T03:05:22.315Z,37.10
2023-01-22T03:07:49.035Z,43.70
2023-01-22T03:10:18.949Z,42.83
2023-01-22T03:13:06.111Z,41.30
2023-01-22T03:15:51.863Z,39.22
2023-01-22T03:18:37.987Z,39.05
2023-01-22T03:21:16.986Z,39.75
2023-01-22T03:23:49.544Z,40.45
2023-01-22T03:26:19.370Z,36.70
2023-01-22T03:28:47.295Z,45.15
2023-01-22T03:31:15.360Z,37.45
2023-01-22T03:33:42.832Z,37.50
2023-01-22T03:36:13.375Z,42.80
2023-01-22T03:38:45.564Z,42.95
2023-01-22T03:41:17.420Z,45.15
2023-01-22T03:43:46.141Z,35.30
2023-01-22T03:46:18.835Z,38.95
2023-01-22T03:48:52.349Z,36.55
2023-01-22T03:51:20.785Z,35.60
2023-01-22T03:53:48.308Z,39.25
2023-01-22T03:56:17.435Z,36.13
2023-01-22T03:58:44.578Z,39.10
2023-01-22T04:01:14.311Z,41.22
2023-01-22T04:03:41.410Z,37.85
2023-01-22T04:06:10.722Z,38.08
2023-01-22T04:08:40.166Z,37.72
2023-01-22T04:11:07.197Z,35.22
2023-01-22T04:13:35.174Z,35.22
2023-01-22T04:16:05.236Z,38.60
2023-01-22T04:18:50.926Z,34.28
2023-01-22T04:21:27.090Z,39.22
2023-01-22T04:23:56.775Z,35.50
2023-01-22T04:26:23.608Z,32.63
2023-01-22T04:28:50.402Z,34.50
2023-01-22T04:31:20.264Z,32.58
2023-01-22T04:34:19.473Z,34.70
2023-01-22T04:36:52.690Z,36.35
2023-01-22T04:39:20.681Z,35.22
2023-01-22T04:41:47.891Z,34.55
2023-01-22T04:44:14.699Z,32.22
2023-01-22T04:46:42.185Z,36.53
2023-01-22T04:49:09.117Z,34.05
2023-01-22T04:51:36.509Z,34.97
2023-01-22T04:54:04.022Z,29.35
2023-01-22T04:56:31.002Z,33.65
2023-01-22T04:58:58.329Z,34.00
2023-01-22T05:01:25.924Z,35.20
2023-01-22T05:03:52.989Z,35.45
2023-01-22T05:06:20.218Z,37.30
2023-01-22T05:08:46.917Z,33.78
2023-01-22T05:11:13.969Z,34.22
2023-01-22T05:13:51.260Z,30.40
2023-01-22T05:16:19.135Z,31.35
2023-01-22T05:18:47.110Z,35.53
2023-01-22T05:21:14.420Z,34.88
2023-01-22T05:23:41.238Z,34.63
2023-01-22T05:26:08.286Z,34.13
2023-01-22T05:28:42.014Z,31.65
2023-01-22T05:31:29.064Z,31.15
2023-01-22T05:34:04.821Z,30.52
2023-01-22T05:36:31.977Z,28.60
2023-01-22T05:39:07.780Z,27.48
2023-01-22T05:41:35.245Z,27.38
2023-01-22T05:44:03.193Z,31.77
2023-01-22T05:46:30.121Z,29.67
2023-01-22T05:49:35.513Z,31.23
2023-01-22T05:52:03.017Z,23.85
2023-01-22T05:54:29.757Z,28.42
2023-01-22T05:56:58.104Z,28.35
2023-01-22T05:59:25.228Z,27.98
2023-01-22T06:01:58.054Z,26.27
2023-01-22T06:04:24.775Z,29.90
2023-01-22T06:06:51.948Z,24.15
2023-01-22T06:09:21.195Z,25.42
2023-01-22T06:11:48.271Z,26.08
2023-01-22T06:14:15.652Z,26.48
2023-01-22T06:16:42.467Z,23.85
2023-01-22T06:19:48.048Z,26.15
2023-01-22T06:22:19.220Z,23.08
2023-01-22T06:24:51.097Z,24.35
2023-01-22T06:27:19.142Z,23.33
2023-01-22T06:29:59.827Z,22.58
2023-01-22T06:32:27.197Z,22.25
2023-01-22T06:34:54.037Z,24.52
2023-01-22T06:37:22.991Z,22.98
2023-01-22T06:39:51.347Z,23.10
2023-01-22T06:42:37.798Z,21.08
2023-01-22T06:45:06.688Z,20.83
2023-01-22T06:47:34.232Z,22.23
2023-01-22T06:50:02.397Z,21.23
2023-01-22T06:52:29.146Z,20.10
2023-01-22T06:54:56.517Z,20.25
2023-01-22T06:57:25.108Z,24.33
2023-01-22T06:59:51.986Z,18.67
2023-01-22T07:02:19.684Z,20.95
2023-01-22T07:04:46.630Z,19.48
2023-01-22T07:07:14.893Z,20.60
2023-01-22T07:09:41.878Z,19.92
2023-01-22T07:12:08.848Z,19.52
2023-01-22T07:14:37.506Z,19.42
2023-01-22T07:17:04.872Z,16.85
2023-01-22T07:19:31.753Z,18.40
2023-01-22T07:21:59.007Z,20.00
2023-01-22T07:24:25.789Z,19.70
2023-01-22T07:26:52.605Z,21.83
2023-01-22T07:29:19.527Z,16.95
2023-01-22T07:31:49.643Z,15.88
2023-01-22T07:34:16.696Z,14.63
2023-01-22T07:36:43.655Z,15.50
2023-01-22T07:39:10.525Z,16.05
2023-01-22T07:41:37.396Z,17.52
2023-01-22T07:44:11.358Z,15.48
2023-01-22T07:46:39.304Z,17.27
2023-01-22T07:49:06.884Z,17.05
2023-01-22T07:51:33.827Z,17.23
2023-01-22T07:54:06.191Z,19.38
2023-01-22T07:56:33.114Z,18.90
2023-01-22T07:58:59.943Z,18.42
2023-01-22T08:01:28.954Z,16.08
2023-01-22T08:03:57.428Z,14.82
2023-01-22T08:06:24.614Z,15.43
2023-01-22T08:08:51.385Z,15.25
2023-01-22T08:11:18.955Z,18.33
2023-01-22T08:13:45.963Z,16.83
2023-01-22T08:16:13.407Z,17.90
2023-01-22T08:18:40.366Z,15.32
2023-01-22T08:21:07.248Z,16.33
2023-01-22T08:23:34.313Z,16.73
2023-01-22T08:26:03.388Z,18.05
2023-01-22T08:28:31.386Z,16.17
2023-01-22T08:31:00.104Z,19.10
2023-01-22T08:33:27.808Z,16.67
2023-01-22T08:35:54.601Z,16.55
2023-01-22T08:38:21.397Z,21.42
2023-01-22T08:40:52.446Z,14.15
2023-01-22T08:43:19.505Z,14.70
2023-01-22T08:45:48.749Z,16.45
2023-01-22T08:48:18.561Z,17.85
2023-01-22T08:50:45.764Z,16.45
2023-01-22T08:53:12.820Z,18.23
2023-01-22T08:55:39.672Z,18.75
2023-01-22T08:58:06.838Z,15.98
2023-01-22T09:00:33.757Z,15.13
2023-01-22T09:03:00.543Z,15.80
2023-01-22T09:05:28.464Z,14.57
2023-01-22T09:07:57.482Z,16.85
2023-01-22T09:10:24.683Z,16.45
2023-01-22T09:12:51.630Z,16.90
2023-01-22T09:15:18.569Z,19.80
2023-01-22T09:17:45.575Z,17.48
2023-01-22T09:20:12.442Z,15.35
2023-01-22T09:22:39.230Z,19.38
2023-01-22T09:25:06.763Z,16.70
2023-01-22T09:27:33.622Z,18.20
2023-01-22T09:30:02.699Z,19.05
2023-01-22T09:32:30.787Z,17.05
2023-01-22T09:35:04.219Z,18.17
2023-01-22T09:37:31.321Z,16.58
2023-01-22T09:39:58.236Z,14.57
2023-01-22T09:42:43.776Z,15.10
2023-01-22T09:45:12.196Z,18.02
2023-01-22T09:47:47.667Z,15.63
2023-01-22T09:50:25.608Z,15.63
2023-01-22T09:52:54.139Z,17.17
2023-01-22T09:55:23.735Z,17.25
2023-01-22T09:57:53.121Z,16.92
2023-01-22T10:00:41.022Z,17.73
2023-01-22T10:03:24.543Z,15.70
2023-01-22T10:05:56.236Z,16.73
2023-01-22T10:08:34.829Z,20.05
2023-01-22T10:11:03.093Z,16.88
2023-01-22T10:13:38.313Z,16.77
2023-01-22T10:16:06.082Z,15.82
2023-01-22T10:18:43.891Z,17.42
2023-01-22T10:21:32.028Z,18.52
2023-01-22T10:23:59.702Z,18.75
2023-01-22T10:26:40.022Z,16.60
2023-01-22T10:29:29.796Z,16.73
2023-01-22T10:31:59.102Z,14.13
2023-01-22T10:34:33.218Z,18.02
2023-01-22T10:37:19.716Z,14.85
2023-01-22T10:39:47.795Z,17.63
2023-01-22T10:42:20.489Z,13.85
2023-01-22T10:44:47.948Z,16.80
2023-01-22T10:47:27.477Z,19.75
2023-01-22T10:50:14.408Z,14.15
2023-01-22T10:52:51.037Z,17.98
2023-01-22T10:55:21.907Z,15.90
2023-01-22T10:57:55.302Z,17.65
2023-01-22T11:00:28.144Z,18.30
2023-01-22T11:02:55.173Z,18.92
2023-01-22T11:05:24.304Z,19.33
2023-01-22T11:07:53.843Z,20.77
2023-01-22T11:10:27.074Z,18.83
2023-01-22T11:13:50.041Z,17.27
2023-01-22T11:16:22.947Z,18.80
2023-01-22T11:19:07.405Z,18.58
2023-01-22T11:21:38.269Z,17.65
2023-01-22T11:24:16.260Z,23.02
2023-01-22T11:27:19.652Z,22.98
2023-01-22T11:29:49.480Z,23.05
2023-01-22T11:32:51.743Z,20.58
2023-01-22T11:35:23.817Z,21.77
2023-01-22T11:38:19.524Z,24.85
2023-01-22T11:41:03.486Z,24.55
2023-01-22T11:43:56.020Z,22.65
2023-01-22T11:47:01.576Z,22.30
2023-01-22T11:49:51.050Z,19.25
2023-01-22T11:52:34.259Z,19.88
2023-01-22T11:55:39.989Z,25.60
2023-01-22T11:58:52.053Z,20.40
2023-01-22T12:01:32.131Z,20.98
2023-01-22T12:04:20.559Z,21.38
2023-01-22T12:07:24.318Z,23.38
2023-01-22T12:09:57.263Z,21.85
2023-01-22T12:12:45.798Z,20.40
2023-01-22T12:15:34.501Z,19.55
2023-01-22T12:18:15.055Z,20.02
2023-01-22T12:20:45.098Z,20.20
2023-01-22T12:23:24.853Z,21.70
2023-01-22T12:26:09.153Z,17.90
2023-01-22T12:28:48.454Z,22.75
2023-01-22T12:31:24.797Z,19.20
2023-01-22T12:33:54.837Z,21.00
2023-01-22T12:45:33.370Z,17.95
2023-01-22T12:48:11.725Z,16.75
2023-01-22T12:50:51.930Z,18.30
2023-01-22T12:53:27.815Z,19.40
2023-01-22T12:56:05.151Z,16.05
2023-01-22T12:58:36.169Z,18.65
2023-01-22T13:01:09.167Z,17.70
2023-01-22T13:03:36.422Z,20.73
2023-01-22T13:06:05.097Z,15.95
2023-01-22T13:08:38.870Z,18.40
2023-01-22T13:11:13.094Z,18.75
2023-01-22T13:14:09.795Z,15.02
2023-01-22T13:16:42.261Z,19.80
2023-01-22T13:19:25.833Z,15.85
2023-01-22T13:22:00.737Z,18.30
2023-01-22T13:24:30.181Z,17.92
2023-01-22T13:27:02.069Z,20.35
2023-01-22T13:29:40.309Z,16.85
2023-01-22T13:32:18.474Z,16.33
2023-01-22T13:34:45.508Z,19.17
2023-01-22T13:37:26.299Z,15.90
2023-01-22T13:39:53.081Z,15.60
2023-01-22T13:42:20.317Z,15.30
2023-01-22T13:44:49.915Z,15.65
2023-01-22T13:47:34.031Z,15.52
2023-01-22T13:50:01.719Z,16.90
2023-01-22T13:52:33.597Z,16.33
2023-01-22T13:55:07.279Z,18.23
2023-01-22T13:57:34.132Z,13.20
2023-01-22T14:00:04.052Z,18.80
2023-01-22T14:02:35.132Z,17.42
2023-01-22T14:05:02.516Z,18.45
2023-01-22T14:07:33.902Z,15.43
2023-01-22T14:10:24.452Z,14.73
2023-01-22T14:13:09.518Z,17.98
2023-01-22T14:15:37.932Z,17.85
2023-01-22T14:18:18.423Z,17.33
2023-01-22T14:20:47.182Z,19.80
2023-01-22T14:23:15.135Z,20.50
2023-01-22T14:25:45.054Z,17.02
2023-01-22T14:28:11.881Z,16.65
2023-01-22T14:30:39.050Z,18.15
2023-01-22T14:33:06.688Z,20.42
2023-01-22T14:35:33.634Z,20.63
2023-01-22T14:38:00.457Z,27.02
2023-01-22T14:40:27.500Z,21.33
2023-01-22T14:42:54.298Z,21.73
2023-01-22T14:45:21.441Z,21.17
2023-01-22T14:47:52.909Z,22.48
2023-01-22T14:50:21.763Z,21.23
2023-01-22T14:52:49.305Z,19.58
2023-01-22T14:55:16.183Z,22.30
2023-01-22T14:57:43.259Z,20.23
2023-01-22T15:00:12.983Z,21.08
2023-01-22T15:02:41.679Z,24.73
2023-01-22T15:05:09.905Z,23.35
2023-01-22T15:07:37.496Z,22.27
2023-01-22T15:10:06.186Z,23.73
2023-01-22T15:12:33.403Z,20.55
2023-01-22T15:15:00.330Z,22.73
2023-01-22T15:17:27.322Z,22.10
2023-01-22T15:19:54.074Z,25.98
2023-01-22T15:22:20.944Z,20.17
2023-01-22T15:24:47.725Z,24.17
2023-01-22T15:27:18.562Z,23.92
2023-01-22T15:29:46.354Z,27.73
2023-01-22T15:32:13.430Z,26.83
2023-01-22T15:34:40.471Z,27.70
2023-01-22T15:37:07.510Z,23.73
2023-01-22T15:39:34.693Z,22.05
2023-01-22T15:42:01.545Z,25.38
2023-01-22T15:44:28.450Z,20.33
2023-01-22T15:46:57.299Z,21.13
2023-01-22T15:49:24.202Z,20.38
2023-01-22T15:51:51.124Z,24.40
2023-01-22T15:54:17.972Z,26.45
2023-01-22T15:56:45.029Z,23.77
2023-01-22T15:59:12.929Z,23.20
2023-01-22T16:01:39.885Z,23.27
2023-01-22T16:04:06.937Z,24.25
2023-01-22T16:06:34.738Z,20.13
2023-01-22T16:09:04.062Z,22.80
2023-01-22T16:11:31.343Z,20.52
2023-01-22T16:13:59.197Z,17.58
2023-01-22T16:16:30.479Z,21.92
2023-01-22T16:18:58.516Z,25.58
2023-01-22T16:21:26.427Z,18.45
2023-01-22T16:23:55.416Z,20.30
2023-01-22T16:26:28.398Z,17.98
2023-01-22T16:28:59.338Z,22.27
2023-01-22T16:31:30.654Z,19.90
2023-01-22T16:34:00.269Z,21.48
2023-01-22T16:36:32.607Z,21.45
2023-01-22T16:39:00.686Z,18.50
2023-01-22T16:41:29.382Z,20.08
2023-01-22T16:44:03.659Z,18.73
2023-01-22T16:46:31.624Z,19.10
2023-01-22T16:49:26.280Z,21.20
2023-01-22T16:51:56.419Z,24.70
2023-01-22T16:54:32.765Z,19.83
2023-01-22T16:57:01.660Z,23.30
2023-01-22T16:59:28.809Z,19.95
2023-01-22T17:01:58.764Z,21.13
2023-01-22T17:04:27.007Z,22.58
2023-01-22T17:06:55.663Z,22.15
2023-01-22T17:09:25.399Z,23.63
2023-01-22T17:11:54.081Z,20.27
2023-01-22T17:14:31.134Z,21.23
2023-01-22T17:17:00.878Z,21.48
2023-01-22T17:19:28.070Z,26.23
2023-01-22T17:21:57.918Z,20.27
2023-01-22T17:24:25.590Z,21.35
2023-01-22T17:26:58.014Z,23.17
2023-01-22T17:29:26.115Z,21.40
2023-01-22T17:31:52.977Z,23.33
2023-01-22T17:34:19.846Z,23.23
2023-01-22T17:36:46.688Z,24.13
2023-01-22T17:39:15.619Z,24.00
2023-01-22T17:41:43.436Z,23.17
2023-01-22T17:44:10.527Z,22.33
2023-01-22T17:46:38.746Z,26.13
2023-01-22T17:49:06.043Z,22.60
2023-01-22T17:51:34.662Z,24.42
2023-01-22T17:54:03.365Z,22.75
2023-01-22T17:56:35.135Z,24.23
2023-01-22T17:59:06.077Z,27.85
2023-01-22T18:01:35.301Z,26.27
2023-01-22T18:04:05.652Z,25.38
2023-01-22T18:06:33.034Z,22.60
2023-01-22T18:09:00.820Z,27.75
2023-01-22T18:11:29.698Z,26.92
2023-01-22T18:14:00.921Z,27.38
2023-01-22T18:16:29.549Z,30.10
2023-01-22T18:18:58.500Z,23.80
2023-01-22T18:21:25.342Z,31.05
2023-01-22T18:23:52.423Z,22.00
2023-01-22T18:26:22.960Z,25.60
2023-01-22T18:28:51.328Z,23.70
2023-01-22T18:31:22.221Z,22.90
2023-01-22T18:33:49.967Z,22.00
2023-01-22T18:36:19.836Z,24.15
2023-01-22T18:38:50.110Z,27.35
2023-01-22T18:41:25.163Z,23.58
2023-01-22T18:43:57.225Z,21.88
2023-01-22T18:46:26.348Z,25.65
2023-01-22T18:48:56.069Z,22.48
2023-01-22T18:51:23.782Z,23.63
2023-01-22T18:53:50.733Z,24.08
2023-01-22T18:56:17.961Z,22.60
2023-01-22T18:58:44.980Z,24.60
2023-01-22T19:01:20.635Z,24.45
2023-01-22T19:03:52.809Z,24.27
2023-01-22T19:06:22.897Z,23.63
2023-01-22T19:08:54.297Z,23.92
2023-01-22T19:11:21.157Z,27.75
2023-01-22T19:13:49.600Z,25.65
2023-01-22T19:16:18.946Z,24.30
2023-01-22T19:18:49.190Z,23.48
2023-01-22T19:21:18.907Z,22.73
2023-01-22T19:23:48.202Z,24.60
2023-01-22T19:26:30.711Z,21.90
2023-01-22T19:29:00.842Z,23.30
2023-01-22T19:31:39.510Z,21.50
2023-01-22T19:34:09.159Z,21.95
2023-01-22T19:36:38.748Z,26.73
2023-01-22T19:39:11.603Z,21.08
2023-01-22T19:41:40.119Z,23.83
2023-01-22T19:44:07.814Z,22.55
2023-01-22T19:46:35.010Z,25.45
2023-01-22T19:49:02.166Z,22.23
2023-01-22T19:51:30.972Z,21.85
2023-01-22T19:54:02.649Z,23.88
2023-01-22T19:56:33.085Z,21.88
2023-01-22T19:59:03.192Z,20.83
2023-01-22T20:01:30.118Z,25.67
2023-01-22T20:03:58.317Z,25.50
2023-01-22T20:06:25.337Z,22.98
2023-01-22T20:08:52.764Z,24.13
2023-01-22T20:11:19.589Z,23.08
2023-01-22T20:13:47.834Z,23.33
2023-01-22T20:16:23.077Z,23.40
2023-01-22T20:18:50.953Z,23.20
2023-01-22T20:21:19.660Z,24.98
2023-01-22T20:23:49.535Z,24.38
2023-01-22T20:26:18.190Z,24.83
2023-01-22T20:28:45.576Z,21.77
2023-01-22T20:31:15.288Z,22.77
2023-01-22T20:33:42.964Z,23.92
2023-01-22T20:36:16.515Z,22.23
2023-01-22T20:38:46.109Z,27.67
2023-01-22T20:41:13.744Z,25.55
2023-01-22T20:43:42.081Z,26.58
2023-01-22T20:46:12.559Z,24.60
2023-01-22T20:48:39.523Z,26.05
2023-01-22T20:51:15.868Z,21.05
2023-01-22T20:53:43.745Z,22.65
2023-01-22T20:56:13.139Z,23.00
2023-01-22T20:58:40.226Z,25.13
2023-01-22T21:01:10.393Z,22.80
2023-01-22T21:03:37.504Z,26.92
2023-01-22T21:06:13.551Z,23.83
2023-01-22T21:08:41.461Z,24.17
2023-01-22T21:11:11.680Z,23.80
2023-01-22T21:13:38.695Z,26.70
2023-01-22T21:16:13.805Z,28.33
2023-01-22T21:18:43.706Z,22.45
2023-01-22T21:21:12.878Z,26.52
2023-01-22T21:23:40.128Z,20.92
2023-01-22T21:26:09.229Z,24.50
2023-01-22T21:28:36.725Z,24.40
2023-01-22T21:31:14.114Z,26.75
2023-01-22T21:33:41.629Z,25.70
2023-01-22T21:36:09.178Z,27.08
2023-01-22T21:38:36.337Z,26.55
2023-01-22T21:41:07.479Z,23.15
2023-01-22T21:43:53.435Z,29.52
2023-01-22T21:46:25.108Z,25.40
2023-01-22T21:49:01.230Z,25.75
2023-01-22T21:51:33.272Z,26.92
2023-01-22T21:54:00.327Z,24.40
2023-01-22T21:56:27.227Z,26.10
2023-01-22T21:58:55.991Z,26.80
2023-01-22T22:01:25.736Z,27.85
2023-01-22T22:03:52.731Z,24.30
2023-01-22T22:06:19.492Z,24.77
2023-01-22T22:08:46.331Z,24.25
2023-01-22T22:11:13.823Z,24.65
2023-01-22T22:13:41.350Z,26.55
2023-01-22T22:16:09.962Z,26.38
2023-01-22T22:18:37.324Z,25.95
2023-01-22T22:21:06.717Z,27.45
2023-01-22T22:23:35.270Z,25.10
2023-01-22T22:26:03.179Z,24.38
2023-01-22T22:28:30.571Z,24.23
2023-01-22T22:31:12.092Z,26.05
2023-01-22T22:33:44.397Z,24.52
2023-01-22T22:36:12.736Z,22.83
2023-01-22T22:38:39.624Z,25.23
2023-01-22T22:41:08.973Z,25.77
2023-01-22T22:43:38.312Z,26.63
2023-01-22T22:46:07.458Z,27.55
2023-01-22T22:48:34.564Z,25.98
2023-01-22T22:51:01.736Z,24.08
2023-01-22T22:53:28.759Z,23.30
2023-01-22T22:55:55.989Z,22.13
2023-01-22T22:58:22.678Z,24.83
2023-01-22T23:00:49.509Z,24.27
2023-01-22T23:03:16.293Z,30.23
2023-01-22T23:05:43.235Z,29.00
2023-01-22T23:08:10.000Z,24.05
2023-01-22T23:10:38.044Z,23.98
2023-01-22T23:13:06.084Z,24.40
2023-01-22T23:15:33.444Z,25.45
2023-01-22T23:18:00.543Z,25.20
2023-01-22T23:20:28.005Z,27.27
2023-01-22T23:22:58.454Z,23.50
2023-01-22T23:25:25.668Z,22.20
2023-01-22T23:27:52.495Z,25.90
2023-01-22T23:30:19.864Z,25.25
2023-01-22T23:32:46.782Z,27.13
2023-01-22T23:35:13.620Z,27.52
2023-01-22T23:37:40.434Z,27.15
2023-01-22T23:40:07.849Z,21.88
2023-01-22T23:42:34.671Z,28.23
2023-01-22T23:45:02.358Z,25.95
2023-01-22T23:47:31.012Z,25.65
2023-01-22T23:49:58.093Z,26.67
2023-01-22T23:52:24.924Z,23.15
